Time;durP1;ratioP1;P1;durP2;ratioP2;P2;SDS_P1;SDS_P2;PMS_P1;PMS_P2;Temp;Humidity;BMP_temperature;BMP_pressure;BME280_temperature;BME280_humidity;BME280_pressure;Samples;Min_cycle;Max_cycle;Signal;HPM_P1;HPM_P2
2022/12/06 00:00:28;;;;;;;8.13;4.85;;;;;;;7.00;56.90;94439.03;5027644;28;20049;-77
2022/12/06 00:02:53;;;;;;;8.85;3.70;;;;;;;6.89;56.92;94419.81;5025035;28;20136;-77
2022/12/06 00:05:19;;;;;;;14.02;6.88;;;;;;;6.77;56.94;94392.91;5025630;28;20067;-77
2022/12/06 00:07:44;;;;;;;9.57;4.70;;;;;;;6.99;56.70;94429.53;5026861;28;20034;-76
2022/12/06 00:10:10;;;;;;;6.05;4.35;;;;;;;7.04;56.98;94429.50;5025094;28;20443;-77
2022/12/06 00:12:35;;;;;;;5.80;3.78;;;;;;;6.83;56.88;94394.47;5026226;28;20290;-77
2022/12/06 00:15:00;;;;;;;6.28;3.47;;;;;;;6.89;56.48;94403.16;5025920;28;20076;-77
2022/12/06 00:17:26;;;;;;;7.38;4.93;;;;;;;6.87;56.28;94395.50;5028972;28;20024;-77
2022/12/06 00:19:51;;;;;;;6.95;4.00;;;;;;;6.86;56.17;94405.28;5038743;28;20087;-77
2022/12/06 00:22:17;;;;;;;6.82;4.30;;;;;;;6.72;56.37;94401.69;5026337;28;20098;-76
2022/12/06 00:24:42;;;;;;;6.43;4.50;;;;;;;6.85;56.40;94413.47;5024557;28;20041;-77
2022/12/06 00:27:08;;;;;;;7.50;4.68;;;;;;;6.80;56.47;94421.44;5022997;28;20535;-76
2022/12/06 00:29:33;;;;;;;6.15;4.00;;;;;;;6.82;56.87;94422.75;5026197;28;20035;-77
2022/12/06 00:31:58;;;;;;;10.68;5.03;;;;;;;6.79;57.08;94422.53;5025303;28;20702;-77
2022/12/06 00:34:24;;;;;;;22.33;13.98;;;;;;;6.80;56.86;94424.09;5024005;28;20120;-78
2022/12/06 00:36:50;;;;;;;10.23;7.40;;;;;;;6.76;56.94;94433.63;5025333;28;20433;-77
2022/12/06 00:39:16;;;;;;;27.40;14.88;;;;;;;6.69;57.36;94436.59;5027821;28;20036;-77
2022/12/06 00:41:42;;;;;;;14.52;8.90;;;;;;;6.79;57.28;94431.25;5021093;28;20025;-78
2022/12/06 00:44:09;;;;;;;11.32;6.43;;;;;;;6.49;57.20;94386.50;5028293;28;20603;-77
2022/12/06 00:46:35;;;;;;;9.85;5.45;;;;;;;6.59;57.65;94402.28;5026686;28;20595;-77
2022/12/06 00:49:04;;;;;;;22.25;10.05;;;;;;;6.78;57.60;94428.88;5027776;28;20537;-77
2022/12/06 00:51:31;;;;;;;21.00;10.90;;;;;;;6.75;57.36;94414.34;5028330;28;20034;-77
2022/12/06 00:53:57;;;;;;;12.20;8.05;;;;;;;6.71;57.54;94397.44;5025206;28;20586;-77
2022/12/06 00:56:23;;;;;;;14.43;7.57;;;;;;;6.94;57.32;94419.78;5025077;28;20123;-77
2022/12/06 00:58:48;;;;;;;10.15;6.07;;;;;;;6.51;57.51;94346.56;5025101;28;20029;-77
2022/12/06 01:01:21;;;;;;;8.02;5.05;;;;;;;6.98;57.32;94418.16;5025990;28;20068;-78
2022/12/06 01:03:50;;;;;;;8.73;4.78;;;;;;;6.91;57.08;94393.09;5026108;28;20037;-77
2022/12/06 01:06:15;;;;;;;8.90;5.20;;;;;;;6.93;57.48;94410.28;5026486;28;20024;-77
2022/12/06 01:08:42;;;;;;;8.18;4.20;;;;;;;6.86;57.29;94394.69;5023396;28;20555;-77
2022/12/06 01:11:08;;;;;;;7.22;4.35;;;;;;;6.96;57.13;94406.28;5028119;28;20389;-78
2022/12/06 01:13:34;;;;;;;7.50;4.25;;;;;;;6.99;56.94;94409.19;5025780;28;21223;-79
2022/12/06 01:16:13;;;;;;;9.25;5.45;;;;;;;6.72;57.15;94392.94;5024361;28;20036;-79
2022/12/06 01:18:40;;;;;;;10.57;5.70;;;;;;;6.69;57.19;94381.09;5026497;28;20550;-78
2022/12/06 01:21:08;;;;;;;16.10;8.00;;;;;;;6.85;57.11;94402.91;5027023;28;20053;-78
2022/12/06 01:23:33;;;;;;;14.27;7.47;;;;;;;6.92;57.28;94405.25;5026457;28;20044;-78
2022/12/06 01:25:59;;;;;;;11.45;6.35;;;;;;;6.97;57.14;94407.84;5019827;28;20030;-76
2022/12/06 01:28:24;;;;;;;12.93;5.90;;;;;;;6.92;57.36;94392.03;5024920;28;20033;-79
2022/12/06 01:30:50;;;;;;;15.10;6.93;;;;;;;6.70;57.81;94356.22;5026871;28;20421;-78
2022/12/06 01:33:15;;;;;;;12.50;5.93;;;;;;;7.03;57.64;94396.19;5024122;28;20092;-79
2022/12/06 01:35:41;;;;;;;9.07;5.75;;;;;;;6.73;57.45;94347.75;5028008;28;20576;-78
2022/12/06 01:38:08;;;;;;;8.80;5.72;;;;;;;6.93;57.08;94373.25;5027163;28;20029;-78
2022/12/06 01:40:42;;;;;;;7.03;4.93;;;;;;;7.02;57.35;94382.16;5026165;28;20071;-78
2022/12/06 01:43:32;;;;;;;9.13;4.93;;;;;;;7.12;57.31;94391.88;5024949;28;20041;-78
2022/12/06 01:46:06;;;;;;;7.78;5.30;;;;;;;6.96;57.25;94371.88;5019089;28;20040;-77
2022/12/06 01:48:32;;;;;;;8.82;4.95;;;;;;;6.82;57.15;94351.38;5027679;28;20053;-78
2022/12/06 01:50:59;;;;;;;8.63;5.40;;;;;;;6.81;57.26;94354.28;5027905;28;20021;-78
2022/12/06 01:53:25;;;;;;;10.80;5.63;;;;;;;6.75;57.56;94361.47;5025366;28;20022;-79
2022/12/06 01:55:51;;;;;;;10.63;7.05;;;;;;;6.66;57.38;94344.63;5025223;28;21673;-78
2022/12/06 01:58:22;;;;;;;10.60;5.63;;;;;;;6.80;57.65;94358.00;5025477;28;20663;-78
2022/12/06 02:00:48;;;;;;;12.93;6.30;;;;;;;6.42;57.42;94302.22;5025316;28;20037;-78
2022/12/06 02:03:18;;;;;;;12.45;5.97;;;;;;;7.02;57.47;94379.53;5027621;28;20531;-78
2022/12/06 02:05:44;;;;;;;9.38;5.50;;;;;;;7.05;57.52;94372.88;5027794;28;20374;-78
2022/12/06 02:08:12;;;;;;;11.88;5.97;;;;;;;6.95;57.13;94355.22;5029241;28;20023;-77
2022/12/06 02:10:37;;;;;;;9.18;5.05;;;;;;;7.00;56.85;94364.97;5029207;28;20152;-78
2022/12/06 02:13:03;;;;;;;8.32;5.32;;;;;;;7.01;56.87;94367.34;5026915;28;20036;-78
2022/12/06 02:15:50;;;;;;;8.27;4.97;;;;;;;7.02;56.85;94370.78;5044954;28;20041;-78
2022/12/06 02:18:33;;;;;;;9.30;5.32;;;;;;;6.79;56.88;94335.28;5035125;28;20066;-78
2022/12/06 02:21:14;;;;;;;9.88;5.85;;;;;;;6.71;56.71;94318.13;5030997;28;20018;-78
2022/12/06 02:24:19;;;;;;;8.60;4.68;;;;;;;6.98;56.90;94359.97;5029082;28;20448;-77
2022/12/06 02:26:48;;;;;;;11.73;5.50;;;;;;;6.78;56.59;94329.19;5026768;28;20037;-78
2022/12/06 02:29:52;;;;;;;8.00;5.07;;;;;;;6.94;56.73;94361.59;5033337;28;20718;-78
2022/12/06 02:32:30;;;;;;;11.05;5.82;;;;;;;6.65;56.75;94329.81;4985205;28;20499;-79
2022/12/06 02:35:24;;;;;;;7.65;4.57;;;;;;;6.65;56.92;94339.63;5030782;28;20068;-78
2022/12/06 02:37:59;;;;;;;7.88;5.63;;;;;;;6.65;57.87;94358.88;5028677;28;20051;-77
2022/12/06 02:40:38;;;;;;;16.20;6.40;;;;;;;6.61;57.93;94351.78;5025288;28;20369;-77
2022/12/06 02:43:12;;;;;;;13.93;6.60;;;;;;;6.38;58.10;94330.28;5027650;28;20057;-78
2022/12/06 02:45:43;;;;;;;15.73;6.03;;;;;;;6.59;57.90;94354.72;5028807;28;20033;-79
2022/12/06 02:48:11;;;;;;;14.27;7.65;;;;;;;6.60;58.04;94331.72;5026756;28;20416;-78
2022/12/06 02:50:46;;;;;;;15.85;7.32;;;;;;;6.70;57.86;94336.94;5027374;28;20055;-77
2022/12/06 02:53:17;;;;;;;16.85;7.20;;;;;;;6.73;57.72;94339.81;5029261;28;20034;-78
2022/12/06 02:55:43;;;;;;;14.73;8.88;;;;;;;6.68;57.89;94337.22;5028164;28;20056;-77
2022/12/06 02:58:09;;;;;;;13.18;7.03;;;;;;;6.79;57.94;94346.66;5034659;28;20087;-78
2022/12/06 03:00:39;;;;;;;12.25;6.50;;;;;;;6.83;57.66;94342.38;5026226;28;20124;-78
2022/12/06 03:03:35;;;;;;;9.57;5.97;;;;;;;6.88;57.51;94332.81;5034065;28;20051;-77
2022/12/06 03:06:00;;;;;;;8.27;5.07;;;;;;;6.88;57.28;94338.91;5027355;28;20038;-77
2022/12/06 03:08:58;;;;;;;11.20;6.03;;;;;;;6.81;57.70;94333.94;5026629;28;20254;-78
2022/12/06 03:11:31;;;;;;;14.73;6.80;;;;;;;6.69;58.23;94320.28;5030278;28;20537;-77
2022/12/06 03:14:08;;;;;;;9.15;5.15;;;;;;;6.89;58.22;94334.41;5027030;28;20096;-77
2022/12/06 03:16:46;;;;;;;8.30;5.50;;;;;;;6.82;57.85;94330.22;5028385;28;20784;-78
2022/12/06 03:19:19;;;;;;;11.38;5.15;;;;;;;6.91;57.83;94332.25;5027703;28;20138;-77
2022/12/06 03:22:01;;;;;;;8.90;5.68;;;;;;;6.97;57.96;94339.09;5026911;28;20458;-78
2022/12/06 03:24:30;;;;;;;14.75;6.35;;;;;;;6.47;58.00;94267.06;5034053;28;20044;-77
2022/12/06 03:27:00;;;;;;;12.13;5.82;;;;;;;6.84;57.88;94337.88;5027914;28;20028;-76
2022/12/06 03:29:29;;;;;;;16.98;9.07;;;;;;;6.64;58.15;94314.25;5029773;28;20552;-76
2022/12/06 03:31:59;;;;;;;17.20;10.75;;;;;;;6.79;58.03;94325.50;5027538;28;20291;-78
2022/12/06 03:34:31;;;;;;;21.08;10.05;;;;;;;6.64;57.93;94306.31;5029656;28;20041;-77
2022/12/06 03:36:57;;;;;;;16.42;9.32;;;;;;;6.61;57.99;94297.06;5030080;28;20033;-78
2022/12/06 03:39:47;;;;;;;19.45;9.02;;;;;;;6.84;58.07;94316.75;5027100;28;20029;-78
2022/12/06 03:42:13;;;;;;;16.88;7.72;;;;;;;6.93;58.01;94332.78;5019173;28;20049;-77
2022/12/06 03:44:38;;;;;;;13.35;6.93;;;;;;;6.74;58.14;94293.03;5027233;28;20025;-77
2022/12/06 03:47:16;;;;;;;14.23;7.47;;;;;;;6.92;58.29;94315.34;5025121;28;20056;-77
2022/12/06 03:49:52;;;;;;;21.85;8.57;;;;;;;6.96;58.12;94313.72;5029596;28;20700;-76
2022/12/06 03:52:17;;;;;;;18.00;8.57;;;;;;;6.82;58.00;94295.84;5028647;28;20626;-77
2022/12/06 03:54:43;;;;;;;23.08;9.55;;;;;;;6.71;58.08;94291.72;5016888;28;20049;-76
2022/12/06 03:57:08;;;;;;;30.23;12.63;;;;;;;6.90;58.06;94320.13;5006888;28;20049;-78
2022/12/06 03:59:34;;;;;;;23.48;10.02;;;;;;;6.71;58.13;94286.41;5007106;28;20456;-78
2022/12/06 04:01:59;;;;;;;19.27;9.88;;;;;;;6.48;58.30;94250.16;5009023;28;20053;-77
2022/12/06 04:04:25;;;;;;;28.70;11.07;;;;;;;6.88;58.43;94306.38;5005679;28;20535;-77
2022/12/06 04:06:51;;;;;;;22.15;11.40;;;;;;;6.95;58.40;94317.41;5007358;28;20152;-77
2022/12/06 04:12:01;;;;;;;26.75;11.35;;;;;;;6.40;59.04;94269.25;5012160;28;20044;-76
2022/12/06 04:14:31;;;;;;;21.70;10.98;;;;;;;6.53;59.48;94308.25;5026563;28;20568;-77
2022/12/06 04:19:43;;;;;;;18.17;9.80;;;;;;;6.65;59.36;94319.25;5027592;28;20048;-77
2022/12/06 04:24:53;;;;;;;20.92;10.50;;;;;;;6.71;59.20;94323.44;5025259;28;20044;-76
2022/12/06 04:40:58;;;;;;;13.52;8.75;;;;;;;6.77;58.73;94301.19;5025636;28;20110;-77
2022/12/06 04:43:42;;;;;;;15.98;8.70;;;;;;;6.64;58.67;94275.41;5025832;28;20041;-77
2022/12/06 04:46:12;;;;;;;20.98;11.55;;;;;;;6.95;58.75;94317.41;5023814;28;20127;-77
2022/12/06 04:48:38;;;;;;;41.83;20.38;;;;;;;6.89;58.71;94315.91;5027203;28;20135;-78
2022/12/06 04:51:04;;;;;;;29.05;15.05;;;;;;;6.92;58.88;94304.75;5026185;28;20033;-77
2022/12/06 04:53:30;;;;;;;20.05;13.05;;;;;;;6.90;58.51;94304.28;5029578;28;20025;-79
2022/12/06 04:55:55;;;;;;;22.42;13.60;;;;;;;7.00;58.53;94314.72;5022996;28;20401;-77
2022/12/06 04:58:22;;;;;;;20.13;12.05;;;;;;;6.89;58.78;94311.41;5024000;28;20083;-76
2022/12/06 05:00:50;;;;;;;20.85;12.02;;;;;;;7.03;58.52;94324.78;5026636;28;20048;-77
2022/12/06 05:03:16;;;;;;;17.60;10.20;;;;;;;6.48;58.37;94238.78;5031244;28;20037;-79
2022/12/06 05:05:41;;;;;;;12.50;8.77;;;;;;;7.05;58.41;94330.56;5017488;28;20090;-77
2022/12/06 05:08:08;;;;;;;19.05;10.73;;;;;;;7.07;58.26;94328.44;5037831;28;20452;-77
2022/12/06 05:10:33;;;;;;;18.55;10.32;;;;;;;7.02;58.32;94316.03;5038378;28;20049;-77
2022/12/06 05:12:59;;;;;;;16.33;9.10;;;;;;;7.10;58.40;94322.56;5024047;28;20087;-77
2022/12/06 05:15:24;;;;;;;17.38;9.30;;;;;;;7.09;58.15;94323.66;5025990;28;20716;-77
2022/12/06 05:17:50;;;;;;;17.90;8.45;;;;;;;6.93;57.78;94293.91;5024039;28;20104;-77
2022/12/06 05:20:16;;;;;;;15.10;9.07;;;;;;;7.12;57.74;94323.09;5025424;28;20029;-77
2022/12/06 05:22:41;;;;;;;14.73;8.35;;;;;;;6.86;57.92;94275.72;5026494;28;20026;-76
2022/12/06 05:25:07;;;;;;;12.52;7.15;;;;;;;7.08;57.92;94311.50;5026435;28;20052;-76
2022/12/06 05:27:33;;;;;;;13.05;7.47;;;;;;;6.88;57.84;94278.09;5027478;28;20352;-77
2022/12/06 05:29:58;;;;;;;15.07;7.68;;;;;;;7.00;57.59;94298.88;5026283;28;20031;-77
2022/12/06 05:32:24;;;;;;;15.15;7.20;;;;;;;6.94;57.82;94294.72;5026923;28;20041;-76
2022/12/06 05:34:49;;;;;;;13.43;7.22;;;;;;;6.91;58.24;94296.03;5028295;28;20037;-77
2022/12/06 05:37:15;;;;;;;13.02;7.53;;;;;;;7.08;58.02;94322.88;5025221;28;20044;-77
2022/12/06 05:39:41;;;;;;;20.85;7.65;;;;;;;7.08;57.92;94317.59;5023157;28;20034;-77
2022/12/06 05:42:06;;;;;;;14.75;7.78;;;;;;;7.01;57.87;94303.88;5011858;28;20448;-77
2022/12/06 05:44:32;;;;;;;14.80;7.78;;;;;;;7.01;58.14;94309.19;5033022;28;20027;-78
2022/12/06 05:46:57;;;;;;;12.77;6.88;;;;;;;7.03;58.56;94303.63;5029686;28;20040;-77
2022/12/06 05:49:23;;;;;;;12.90;7.28;;;;;;;7.12;58.30;94321.25;5034017;28;20528;-78
2022/12/06 05:51:48;;;;;;;11.82;6.82;;;;;;;7.12;58.46;94315.16;5029116;28;20040;-77
2022/12/06 05:54:14;;;;;;;14.02;6.95;;;;;;;7.04;58.21;94294.63;5030975;28;20032;-77
2022/12/06 05:56:39;;;;;;;13.13;7.43;;;;;;;7.13;58.12;94308.81;5027850;28;20029;-77
2022/12/06 05:59:05;;;;;;;11.63;6.00;;;;;;;7.13;57.71;94306.97;5027382;28;20041;-76
2022/12/06 06:01:31;;;;;;;12.18;7.05;;;;;;;6.85;57.84;94268.84;5014139;28;20201;-77
2022/12/06 06:03:56;;;;;;;11.45;6.25;;;;;;;7.11;58.02;94317.03;5030134;28;20041;-78
2022/12/06 06:06:22;;;;;;;12.10;7.15;;;;;;;7.12;57.82;94313.31;5030112;28;20040;-77
2022/12/06 06:08:48;;;;;;;15.63;7.03;;;;;;;7.14;57.74;94313.03;5025792;28;20053;-77
2022/12/06 06:11:14;;;;;;;13.60;6.90;;;;;;;7.10;57.73;94296.13;5012229;28;20091;-77
2022/12/06 06:13:39;;;;;;;12.60;6.32;;;;;;;6.99;57.40;94278.78;5022097;28;20044;-76
2022/12/06 06:16:05;;;;;;;12.93;6.53;;;;;;;7.15;57.29;94306.66;5025567;28;20038;-77
2022/12/06 06:18:31;;;;;;;10.57;6.93;;;;;;;7.16;57.33;94302.94;5026384;28;20197;-77
2022/12/06 06:20:58;;;;;;;10.50;6.53;;;;;;;6.84;57.08;94254.06;5025563;28;20041;-78
2022/12/06 06:23:25;;;;;;;15.98;7.95;;;;;;;7.14;56.95;94311.16;5023757;28;20021;-78
2022/12/06 06:25:51;;;;;;;17.00;7.90;;;;;;;7.08;57.08;94314.16;5026954;28;20452;-77
2022/12/06 06:28:17;;;;;;;12.50;7.93;;;;;;;7.00;57.01;94306.78;5021016;28;20041;-78
2022/12/06 06:30:43;;;;;;;9.43;6.32;;;;;;;6.95;56.76;94294.41;5017481;28;20107;-77
2022/12/06 06:33:09;;;;;;;11.90;7.15;;;;;;;6.69;56.67;94243.63;5011050;28;20048;-77
2022/12/06 06:35:35;;;;;;;14.43;7.15;;;;;;;7.16;56.62;94322.25;5034040;28;20572;-78
2022/12/06 06:38:01;;;;;;;14.68;7.63;;;;;;;7.16;57.23;94324.91;5020223;28;20037;-78
2022/12/06 06:40:28;;;;;;;17.42;9.00;;;;;;;7.17;57.11;94315.91;5016279;28;20087;-78
2022/12/06 06:42:54;;;;;;;14.93;8.07;;;;;;;7.03;57.14;94287.75;5023255;28;20040;-77
2022/12/06 06:45:22;;;;;;;19.08;10.52;;;;;;;7.18;57.11;94306.13;5021618;28;20033;-77
2022/12/06 06:47:47;;;;;;;20.00;9.35;;;;;;;7.11;56.84;94303.00;5023436;28;20037;-78
2022/12/06 06:50:13;;;;;;;18.88;9.18;;;;;;;7.12;57.08;94292.16;5023355;28;20029;-77
2022/12/06 06:52:40;;;;;;;18.85;9.63;;;;;;;7.15;57.23;94294.22;5023548;28;20037;-76
2022/12/06 06:55:06;;;;;;;17.10;10.13;;;;;;;7.20;57.09;94298.69;5023993;28;20088;-77
2022/12/06 06:57:34;;;;;;;20.20;9.95;;;;;;;7.21;57.16;94300.25;5020559;28;20046;-77
2022/12/06 06:59:59;;;;;;;14.15;8.10;;;;;;;7.08;57.22;94300.94;5021980;28;20666;-77
2022/12/06 07:02:24;;;;;;;16.85;9.30;;;;;;;6.93;57.43;94278.06;5027122;28;20049;-78
2022/12/06 07:04:50;;;;;;;12.65;8.60;;;;;;;7.04;57.76;94303.34;5022606;28;20118;-76
2022/12/06 07:07:16;;;;;;;17.13;8.65;;;;;;;7.07;57.62;94310.72;5031245;28;20069;-78
2022/12/06 07:09:41;;;;;;;19.90;10.02;;;;;;;6.99;57.88;94292.03;5023418;28;20037;-77
2022/12/06 07:12:09;;;;;;;21.98;10.02;;;;;;;7.07;57.37;94304.63;5038176;28;20691;-77
2022/12/06 07:14:35;;;;;;;15.38;8.52;;;;;;;7.12;57.68;94307.22;5022894;28;21234;-78
2022/12/06 07:17:00;;;;;;;15.50;9.52;;;;;;;7.15;58.03;94296.09;5027868;28;20607;-78
2022/12/06 07:19:26;;;;;;;20.40;9.02;;;;;;;7.18;57.90;94306.13;5021394;28;20037;-77
2022/12/06 07:21:52;;;;;;;14.43;9.52;;;;;;;7.19;57.85;94297.13;5036156;28;20040;-76
2022/12/06 07:24:17;;;;;;;27.30;10.07;;;;;;;7.17;57.69;94294.75;5026618;28;20464;-79
2022/12/06 07:26:43;;;;;;;19.20;9.07;;;;;;;6.95;58.11;94260.03;5019321;28;20547;-77
2022/12/06 07:29:08;;;;;;;29.77;11.02;;;;;;;7.15;57.76;94286.28;5020316;28;20049;-78
2022/12/06 07:31:34;;;;;;;18.75;10.27;;;;;;;7.21;57.98;94301.06;5018509;28;20218;-77
2022/12/06 07:34:01;;;;;;;17.88;9.48;;;;;;;7.08;58.35;94300.94;5013877;28;20470;-77
2022/12/06 07:36:29;;;;;;;24.33;10.65;;;;;;;7.14;58.19;94287.34;5021367;28;20045;-79
2022/12/06 07:38:56;;;;;;;17.75;9.45;;;;;;;6.98;58.22;94303.66;5020597;28;20094;-79
2022/12/06 07:46:55;;;;;;;25.35;10.25;;;;;;;7.27;58.35;94293.84;5021393;28;20126;-78
2022/12/06 07:49:21;;;;;;;13.15;8.75;;;;;;;7.25;57.97;94283.53;5025399;28;20299;-77
2022/12/06 07:51:47;;;;;;;16.30;9.45;;;;;;;7.29;57.73;94307.56;5037822;28;20052;-78
2022/12/06 07:54:13;;;;;;;23.42;9.63;;;;;;;7.27;57.43;94278.78;5020600;28;20037;-80
2022/12/06 07:56:39;;;;;;;17.63;8.38;;;;;;;7.00;57.62;94269.78;5015320;28;20860;-79
2022/12/06 07:59:04;;;;;;;20.50;8.18;;;;;;;7.15;58.13;94299.50;5019520;28;20045;-78
2022/12/06 08:01:30;;;;;;;17.48;7.63;;;;;;;6.92;57.68;94260.59;5019425;28;20068;-78
2022/12/06 08:04:02;;;;;;;13.38;7.22;;;;;;;7.08;57.95;94295.63;5018366;28;20036;-77
2022/12/06 08:06:29;;;;;;;18.60;7.63;;;;;;;6.41;58.12;94210.81;5024324;28;20071;-78
2022/12/06 08:08:54;;;;;;;15.25;7.15;;;;;;;5.07;58.10;94020.44;5016730;28;20993;-78
2022/12/06 08:11:21;;;;;;;17.70;8.07;;;;;;;6.00;58.96;94186.56;5001882;28;20505;-77
2022/12/06 08:13:49;;;;;;;11.35;6.88;;;;;;;6.69;58.59;94301.78;5000273;28;20040;-79
2022/12/06 08:16:16;;;;;;;11.10;6.13;;;;;;;6.14;59.12;94281.00;5006619;28;20049;-79
2022/12/06 08:18:42;;;;;;;9.50;5.20;;;;;;;6.04;60.00;94286.34;5001656;28;20079;-77
2022/12/06 08:21:15;;;;;;;12.25;5.30;;;;;;;6.07;60.34;94297.13;4997640;28;21030;-77
2022/12/06 08:23:41;;;;;;;10.27;5.68;;;;;;;5.73;60.86;94254.00;4993766;28;20051;-76
2022/12/06 08:26:13;;;;;;;15.93;6.85;;;;;;;5.94;60.87;94287.97;5017043;28;20038;-76
2022/12/06 08:28:39;;;;;;;13.43;5.78;;;;;;;5.69;61.62;94284.66;5019693;28;20175;-78
2022/12/06 08:31:11;;;;;;;12.55;5.93;;;;;;;5.24;61.65;94246.03;5016858;28;20648;-78
2022/12/06 08:33:36;;;;;;;6.70;4.07;;;;;;;5.48;62.02;94283.97;5017615;28;20128;-75
2022/12/06 08:36:10;;;;;;;8.93;5.10;;;;;;;5.34;62.77;94283.72;5016898;28;20048;-75
2022/12/06 08:38:37;;;;;;;13.00;5.90;;;;;;;5.20;63.08;94274.00;5021567;28;20088;-77
2022/12/06 08:41:03;;;;;;;9.02;5.15;;;;;;;5.23;63.34;94286.69;5015097;28;20033;-77
2022/12/06 08:43:30;;;;;;;15.80;5.28;;;;;;;5.08;63.72;94269.84;5017296;28;20041;-78
2022/12/06 08:45:55;;;;;;;14.95;6.68;;;;;;;5.11;64.06;94300.94;5015160;28;20041;-77
2022/12/06 08:48:21;;;;;;;9.25;5.60;;;;;;;5.19;63.95;94289.03;5018776;28;20048;-77
2022/12/06 08:50:47;;;;;;;12.75;6.32;;;;;;;5.35;63.79;94282.66;5014260;28;20035;-78
2022/12/06 08:53:12;;;;;;;17.25;6.22;;;;;;;5.19;63.59;94256.63;5023020;28;20029;-77
2022/12/06 08:55:38;;;;;;;15.70;5.65;;;;;;;5.53;63.11;94291.84;5021704;28;20351;-77
2022/12/06 08:58:03;;;;;;;14.60;6.00;;;;;;;5.58;62.79;94273.34;5017549;28;20080;-78
2022/12/06 09:00:29;;;;;;;10.88;5.50;;;;;;;5.25;62.35;94206.22;5010750;28;20047;-77
2022/12/06 09:02:55;;;;;;;10.77;5.82;;;;;;;5.77;62.36;94270.91;5022789;28;20049;-77
2022/12/06 09:05:20;;;;;;;11.30;5.78;;;;;;;5.89;62.12;94264.22;5019966;28;20021;-77
2022/12/06 09:07:46;;;;;;;14.27;6.35;;;;;;;5.84;61.43;94251.06;5019039;28;20920;-76
2022/12/06 09:10:11;;;;;;;13.25;5.90;;;;;;;6.00;62.29;94255.19;5023859;28;20052;-77
2022/12/06 09:12:37;;;;;;;16.88;6.60;;;;;;;5.99;61.02;94248.34;5025519;28;20373;-79
2022/12/06 09:15:06;;;;;;;13.75;6.78;;;;;;;6.15;61.09;94256.16;5026918;28;20041;-78
2022/12/06 09:17:31;;;;;;;15.90;7.28;;;;;;;6.22;61.21;94251.38;5030358;28;20017;-79
2022/12/06 09:19:57;;;;;;;13.45;7.93;;;;;;;6.08;60.55;94210.78;5024583;28;20041;-78
2022/12/06 09:22:22;;;;;;;17.10;7.10;;;;;;;6.39;60.63;94210.31;5023029;28;20049;-79
2022/12/06 09:24:48;;;;;;;13.82;7.13;;;;;;;6.26;60.24;94204.88;5021350;28;20457;-78
2022/12/06 09:27:13;;;;;;;17.85;6.50;;;;;;;6.49;59.81;94241.16;5019829;28;20339;-77
2022/12/06 09:29:39;;;;;;;12.15;6.03;;;;;;;6.24;60.32;94228.13;5018408;28;20432;-78
2022/12/06 09:32:04;;;;;;;18.95;7.25;;;;;;;6.50;60.08;94221.59;5027679;28;20598;-78
2022/12/06 09:34:30;;;;;;;20.10;7.28;;;;;;;6.38;59.89;94207.94;5020333;28;20041;-78
2022/12/06 09:37:03;;;;;;;13.98;7.95;;;;;;;6.34;59.74;94194.50;5009100;28;20045;-79
2022/12/06 09:39:32;;;;;;;14.60;7.35;;;;;;;6.27;60.19;94185.31;5021069;28;20042;-75
2022/12/06 09:42:25;;;;;;;13.15;6.20;;;;;;;6.40;61.53;94189.97;5020280;28;20086;-77
2022/12/06 09:45:14;;;;;;;15.27;6.78;;;;;;;6.39;61.75;94156.69;5021501;28;20490;-78
2022/12/06 09:48:10;;;;;;;16.83;7.30;;;;;;;6.82;60.68;94181.38;5035386;28;20104;-79
2022/12/06 09:50:57;;;;;;;16.17;7.10;;;;;;;6.93;59.42;94187.34;5034570;28;20057;-78
2022/12/06 09:53:51;;;;;;;13.70;5.93;;;;;;;6.53;59.27;94157.63;5020484;28;20459;-78
2022/12/06 09:56:35;;;;;;;11.45;6.88;;;;;;;6.72;59.74;94186.75;5027683;28;20405;-78
2022/12/06 09:59:14;;;;;;;13.13;5.95;;;;;;;6.57;59.47;94153.34;5023013;28;20071;-78
2022/12/06 10:02:01;;;;;;;14.68;7.47;;;;;;;6.70;59.57;94189.69;5020334;28;20368;-80
2022/12/06 10:04:39;;;;;;;13.50;7.07;;;;;;;6.65;59.46;94170.47;5018318;28;20128;-78
2022/12/06 10:07:04;;;;;;;12.25;6.68;;;;;;;6.50;59.41;94163.47;5020130;28;20034;-78
2022/12/06 10:09:52;;;;;;;13.95;7.75;;;;;;;6.40;59.92;94134.50;5019164;28;20043;-75
2022/12/06 10:12:42;;;;;;;17.85;7.00;;;;;;;6.40;60.54;94168.84;5024661;28;20041;-76
2022/12/06 10:15:32;;;;;;;20.90;7.75;;;;;;;6.36;60.78;94165.19;5020298;28;20466;-77
2022/12/06 10:18:12;;;;;;;13.90;8.02;;;;;;;6.42;60.96;94145.56;5022651;28;20231;-76
2022/12/06 10:20:52;;;;;;;16.13;7.60;;;;;;;6.38;61.17;94092.50;5036816;28;20029;-75
2022/12/06 10:23:28;;;;;;;14.77;6.65;;;;;;;6.89;60.76;94128.19;5004434;28;20060;-77
2022/12/06 10:26:13;;;;;;;13.35;6.80;;;;;;;7.00;59.98;94126.97;5010017;28;20100;-77
2022/12/06 10:28:47;;;;;;;14.82;7.70;;;;;;;7.13;59.52;94128.94;5024058;28;20041;-75
2022/12/06 10:31:25;;;;;;;15.77;6.57;;;;;;;7.15;58.13;94121.50;5029849;28;20040;-78
2022/12/06 10:33:57;;;;;;;11.95;6.47;;;;;;;6.82;58.46;94118.72;5039458;28;20040;-78
2022/12/06 10:36:43;;;;;;;13.90;6.85;;;;;;;7.11;58.33;94125.78;5037424;28;20056;-78
2022/12/06 10:39:38;;;;;;;18.75;8.35;;;;;;;7.04;58.44;94125.34;5031324;28;20044;-78
2022/12/06 10:42:16;;;;;;;14.80;6.65;;;;;;;7.19;58.36;94128.59;5034000;28;20117;-77
2022/12/06 10:44:53;;;;;;;16.85;6.72;;;;;;;7.06;58.38;94086.19;5030520;28;20020;-78
2022/12/06 10:47:26;;;;;;;14.85;8.27;;;;;;;7.47;57.80;94129.56;5034936;28;20049;-77
2022/12/06 10:49:56;;;;;;;14.75;7.10;;;;;;;7.38;56.82;94131.28;5038659;28;20038;-78
2022/12/06 10:52:21;;;;;;;13.90;6.90;;;;;;;7.33;57.00;94131.34;5031497;28;20498;-78
2022/12/06 10:54:58;;;;;;;12.43;7.22;;;;;;;7.38;57.57;94119.91;5021571;28;20073;-76
2022/12/06 10:57:35;;;;;;;14.65;7.47;;;;;;;7.08;57.59;94107.84;5036171;28;20093;-77
2022/12/06 11:00:02;;;;;;;16.05;6.90;;;;;;;7.28;57.53;94112.88;5029437;28;20033;-78
2022/12/06 11:02:41;;;;;;;17.38;6.22;;;;;;;7.30;57.34;94086.91;5029101;28;20619;-78
2022/12/06 11:05:20;;;;;;;13.10;6.03;;;;;;;7.29;56.47;94066.81;5016981;28;20045;-77
2022/12/06 11:07:49;;;;;;;13.73;7.57;;;;;;;7.68;56.29;94093.78;5023754;28;20383;-78
2022/12/06 11:10:27;;;;;;;13.07;6.07;;;;;;;7.58;55.83;94072.75;5027741;28;20036;-78
2022/12/06 11:13:18;;;;;;;10.88;6.50;;;;;;;7.69;55.75;94090.06;5029877;28;20029;-77
2022/12/06 11:15:53;;;;;;;12.85;6.80;;;;;;;7.84;55.67;94075.03;4984443;28;20060;-77
2022/12/06 11:18:19;;;;;;;11.48;7.40;;;;;;;7.79;55.44;94083.06;5027474;28;20531;-78
2022/12/06 11:20:51;;;;;;;10.50;6.38;;;;;;;7.94;55.15;94072.22;5010468;28;20111;-77
2022/12/06 11:23:28;;;;;;;12.73;6.75;;;;;;;7.71;55.16;94076.53;5018030;28;20476;-79
2022/12/06 11:26:06;;;;;;;12.65;6.53;;;;;;;7.36;56.37;94075.19;5016279;28;20500;-78
2022/12/06 11:28:44;;;;;;;9.77;5.68;;;;;;;7.08;57.32;94060.25;5027078;28;20033;-78
2022/12/06 11:31:25;;;;;;;9.57;5.60;;;;;;;6.76;58.28;94037.88;5019301;28;20041;-77
2022/12/06 11:33:51;;;;;;;15.05;5.72;;;;;;;6.68;58.20;94030.59;5026131;28;20467;-78
2022/12/06 11:36:19;;;;;;;12.32;7.85;;;;;;;6.61;58.46;94010.84;5027714;28;20033;-78
2022/12/06 11:38:45;;;;;;;10.40;6.03;;;;;;;7.12;58.58;94069.19;5026367;28;20025;-76
2022/12/06 11:41:19;;;;;;;15.50;6.05;;;;;;;7.01;58.84;94073.00;5026559;28;20420;-78
2022/12/06 11:43:45;;;;;;;11.77;7.20;;;;;;;7.10;58.56;94050.16;5027002;28;20489;-77
2022/12/06 11:46:12;;;;;;;13.80;7.07;;;;;;;7.01;57.84;94041.28;5028286;28;20061;-78
2022/12/06 11:48:38;;;;;;;11.63;5.57;;;;;;;7.44;57.83;94061.31;5027058;28;20041;-77
2022/12/06 11:51:07;;;;;;;15.80;6.38;;;;;;;7.41;57.10;94056.59;5024183;28;20375;-78
2022/12/06 11:53:39;;;;;;;11.75;6.03;;;;;;;7.60;57.18;94059.22;5032361;28;20390;-77
2022/12/06 11:56:23;;;;;;;9.82;5.82;;;;;;;7.87;56.78;94048.00;5027704;28;20255;-77
2022/12/06 11:59:09;;;;;;;13.20;6.50;;;;;;;7.91;56.00;94047.13;5028074;28;20056;-77
2022/12/06 12:01:47;;;;;;;12.70;5.63;;;;;;;7.73;56.35;94052.47;5032680;28;20045;-77
2022/12/06 12:04:40;;;;;;;13.10;5.70;;;;;;;7.49;56.80;94048.00;5036484;28;20068;-78
2022/12/06 12:07:08;;;;;;;14.35;5.85;;;;;;;7.27;57.58;94050.47;5025751;28;20398;-77
2022/12/06 12:09:44;;;;;;;11.07;6.78;;;;;;;7.17;58.15;94047.94;5032540;28;20076;-77
2022/12/06 12:12:17;;;;;;;19.45;7.72;;;;;;;7.01;58.15;94020.13;5025061;28;20033;-76
2022/12/06 12:14:49;;;;;;;14.05;7.05;;;;;;;7.00;58.39;94029.91;5049612;28;20048;-77